createdAt,value
2023-05-13T00:01:42.881Z,2.00
2023-05-13T00:04:13.099Z,2.60
2023-05-13T00:06:40.097Z,3.03
2023-05-13T00:09:09.792Z,3.10
2023-05-13T00:12:03.348Z,6.10
2023-05-13T00:14:43.625Z,7.50
2023-05-13T00:17:10.825Z,5.33
2023-05-13T00:19:37.746Z,4.80
2023-05-13T00:22:05.109Z,4.30
2023-05-13T00:24:33.411Z,6.00
2023-05-13T00:27:00.314Z,3.10
2023-05-13T00:29:27.181Z,7.63
2023-05-13T00:32:06.796Z,3.43
2023-05-13T00:34:33.672Z,3.73
2023-05-13T00:37:01.040Z,3.50
2023-05-13T00:39:28.876Z,3.70
2023-05-13T00:41:55.812Z,4.67
2023-05-13T00:44:31.266Z,5.00
2023-05-13T00:46:58.312Z,4.43
2023-05-13T00:49:25.536Z,4.07
2023-05-13T00:51:55.104Z,12.43
2023-05-13T00:54:24.094Z,4.10
2023-05-13T00:56:54.454Z,5.83
2023-05-13T00:59:21.612Z,5.33
2023-05-13T01:02:25.686Z,6.47
2023-05-13T01:05:29.777Z,4.30
2023-05-13T01:08:38.642Z,4.27
2023-05-13T01:11:13.868Z,6.40
2023-05-13T01:13:43.559Z,4.93
2023-05-13T01:16:41.184Z,7.37
2023-05-13T01:19:35.011Z,5.03
2023-05-13T01:22:01.918Z,4.83
2023-05-13T01:24:28.851Z,4.47
2023-05-13T01:26:55.890Z,6.17
2023-05-13T01:29:22.950Z,4.47
2023-05-13T01:31:51.630Z,5.60
2023-05-13T01:34:20.888Z,7.37
2023-05-13T01:36:48.537Z,5.87
2023-05-13T01:39:16.987Z,6.10
2023-05-13T01:41:48.047Z,5.93
2023-05-13T01:44:15.736Z,6.70
2023-05-13T01:46:56.001Z,9.20
2023-05-13T01:49:23.117Z,5.80
2023-05-13T01:51:50.012Z,5.43
2023-05-13T01:54:36.090Z,5.47
2023-05-13T01:57:08.017Z,6.87
2023-05-13T01:59:34.915Z,7.27
2023-05-13T02:02:02.073Z,5.30
2023-05-13T02:04:34.070Z,5.43
2023-05-13T02:07:01.027Z,6.93
2023-05-13T02:09:27.989Z,6.20
2023-05-13T02:11:56.940Z,7.57
2023-05-13T02:14:27.116Z,8.83
2023-05-13T02:16:54.084Z,6.93
2023-05-13T02:19:21.093Z,8.73
2023-05-13T02:21:47.998Z,6.70
2023-05-13T02:24:14.904Z,8.67
2023-05-13T02:26:41.867Z,8.03
2023-05-13T02:29:25.127Z,9.50
2023-05-13T02:31:52.174Z,7.70
2023-05-13T02:34:20.118Z,7.37
2023-05-13T02:36:48.589Z,8.23
2023-05-13T02:39:16.609Z,8.20
2023-05-13T02:41:46.677Z,9.27
2023-05-13T02:44:13.566Z,11.17
2023-05-13T02:46:40.441Z,10.90
2023-05-13T02:49:14.098Z,10.20
2023-05-13T02:51:41.062Z,11.23
2023-05-13T02:54:16.314Z,12.23
2023-05-13T02:57:07.151Z,9.30
2023-05-13T02:59:34.069Z,11.77
2023-05-13T03:02:30.044Z,12.00
2023-05-13T03:05:24.984Z,10.93
2023-05-13T03:07:51.887Z,9.00
2023-05-13T03:10:19.091Z,11.10
2023-05-13T03:12:46.411Z,10.67
2023-05-13T03:15:15.611Z,9.83
2023-05-13T03:17:44.236Z,11.00
2023-05-13T03:20:11.976Z,12.30
2023-05-13T03:22:58.059Z,9.97
2023-05-13T03:25:25.024Z,8.53
2023-05-13T03:27:51.920Z,10.33
2023-05-13T03:30:19.024Z,11.70
2023-05-13T03:33:12.712Z,9.70
2023-05-13T03:35:39.700Z,10.00
2023-05-13T03:38:06.629Z,14.00
2023-05-13T03:40:36.642Z,10.77
2023-05-13T03:43:03.673Z,12.57
2023-05-13T03:45:30.605Z,10.70
2023-05-13T03:48:19.307Z,10.10
2023-05-13T03:50:46.399Z,11.60
2023-05-13T03:53:13.407Z,9.87
2023-05-13T03:55:48.446Z,12.23
2023-05-13T03:58:16.550Z,11.73
2023-05-13T04:00:47.496Z,13.90
2023-05-13T04:03:18.293Z,12.50
2023-05-13T04:05:49.099Z,15.27
2023-05-13T04:08:32.352Z,12.60
2023-05-13T04:11:02.451Z,11.50
2023-05-13T04:13:29.340Z,18.80
2023-05-13T04:15:56.216Z,13.53
2023-05-13T04:18:29.481Z,11.00
2023-05-13T04:20:56.727Z,15.23
2023-05-13T04:23:23.617Z,10.77
2023-05-13T04:25:53.837Z,11.70
2023-05-13T04:28:21.095Z,14.00
2023-05-13T04:30:59.182Z,12.53
2023-05-13T04:33:26.986Z,12.50
2023-05-13T04:35:54.004Z,12.47
2023-05-13T04:38:20.920Z,15.97
2023-05-13T04:40:48.024Z,12.13
2023-05-13T04:43:46.961Z,11.67
2023-05-13T04:46:13.977Z,13.00
2023-05-13T04:48:40.907Z,11.67
2023-05-13T04:51:08.520Z,10.00
2023-05-13T04:53:36.140Z,13.17
2023-05-13T04:56:04.400Z,11.60
2023-05-13T04:58:34.396Z,15.63
2023-05-13T05:01:01.266Z,15.63
2023-05-13T05:03:28.333Z,10.83
2023-05-13T05:06:18.457Z,9.93
2023-05-13T05:08:45.468Z,8.90
2023-05-13T05:11:16.445Z,11.93
2023-05-13T05:13:45.581Z,12.13
2023-05-13T05:16:12.460Z,8.63
2023-05-13T05:18:41.288Z,9.87
2023-05-13T05:21:12.584Z,10.03
2023-05-13T05:23:39.521Z,10.80
2023-05-13T05:26:11.700Z,9.33
2023-05-13T05:28:40.215Z,9.50
2023-05-13T05:31:07.333Z,9.90
2023-05-13T05:33:34.316Z,10.27
2023-05-13T05:36:01.288Z,9.27
2023-05-13T05:38:28.312Z,12.20
2023-05-13T05:40:55.718Z,9.70
2023-05-13T05:43:22.704Z,8.97
2023-05-13T05:45:49.630Z,8.00
2023-05-13T05:48:17.013Z,13.07
2023-05-13T05:50:47.140Z,8.57
2023-05-13T05:53:18.134Z,8.07
2023-05-13T05:55:59.321Z,8.20
2023-05-13T05:58:31.346Z,9.37
2023-05-13T06:01:00.547Z,7.17
2023-05-13T06:03:27.850Z,8.10
2023-05-13T06:05:55.145Z,7.67
2023-05-13T06:08:27.965Z,8.17
2023-05-13T06:10:54.946Z,7.50
2023-05-13T06:13:21.839Z,6.60
2023-05-13T06:15:48.814Z,6.30
2023-05-13T06:18:15.912Z,5.90
2023-05-13T06:20:42.912Z,6.80
2023-05-13T06:23:10.976Z,5.53
2023-05-13T06:25:37.911Z,6.77
2023-05-13T06:28:06.292Z,5.53
2023-05-13T06:30:33.191Z,5.00
2023-05-13T06:33:02.001Z,6.00
2023-05-13T06:35:29.544Z,4.50
2023-05-13T06:37:57.510Z,5.20
2023-05-13T06:40:24.841Z,4.40
2023-05-13T06:42:55.975Z,4.00
2023-05-13T06:45:25.995Z,6.43
2023-05-13T06:47:53.693Z,8.67
2023-05-13T06:50:20.970Z,4.53
2023-05-13T06:52:48.244Z,4.63
2023-05-13T06:55:16.660Z,10.20
2023-05-13T06:57:46.612Z,4.23
2023-05-13T07:00:17.764Z,3.93
2023-05-13T07:02:44.679Z,3.47
2023-05-13T07:05:12.388Z,3.40
2023-05-13T07:07:39.488Z,3.60
2023-05-13T07:10:06.879Z,4.20
2023-05-13T07:12:33.947Z,4.20
2023-05-13T07:15:02.087Z,7.13
2023-05-13T07:17:29.132Z,3.57
2023-05-13T07:19:57.352Z,3.90
2023-05-13T07:22:24.519Z,3.37
2023-05-13T07:24:51.471Z,3.97
2023-05-13T07:27:18.352Z,4.27
2023-05-13T07:29:54.502Z,4.60
2023-05-13T07:32:21.440Z,7.53
2023-05-13T07:34:48.398Z,6.63
2023-05-13T07:37:21.552Z,8.00
2023-05-13T07:39:48.460Z,3.40
2023-05-13T07:42:29.971Z,3.87
2023-05-13T07:44:57.092Z,5.57
2023-05-13T07:47:24.067Z,3.40
2023-05-13T07:49:51.108Z,2.87
2023-05-13T07:52:20.153Z,9.20
2023-05-13T07:54:47.057Z,3.70
2023-05-13T07:57:13.923Z,3.07
2023-05-13T07:59:44.529Z,8.27
2023-05-13T08:02:17.933Z,3.10
2023-05-13T08:04:46.502Z,3.20
2023-05-13T08:07:13.466Z,5.27
2023-05-13T08:09:47.506Z,5.60
2023-05-13T08:12:17.458Z,4.10
2023-05-13T08:14:48.830Z,3.90
2023-05-13T08:17:20.750Z,3.63
2023-05-13T08:19:47.649Z,3.90
2023-05-13T08:22:14.780Z,3.50
2023-05-13T08:24:43.313Z,3.20
2023-05-13T08:27:17.535Z,2.77
2023-05-13T08:29:44.508Z,3.57
2023-05-13T08:32:11.592Z,5.47
2023-05-13T08:34:38.641Z,3.70
2023-05-13T08:37:08.757Z,6.37
2023-05-13T08:39:35.837Z,2.70
2023-05-13T08:42:04.431Z,4.40
2023-05-13T08:44:48.147Z,3.77
2023-05-13T08:47:37.194Z,3.57
2023-05-13T08:50:07.307Z,3.30
2023-05-13T08:52:34.277Z,3.53
2023-05-13T08:55:02.436Z,3.70
2023-05-13T08:57:35.496Z,4.40
2023-05-13T09:00:04.820Z,3.10
2023-05-13T09:02:33.900Z,3.67
2023-05-13T09:05:09.366Z,2.70
2023-05-13T09:07:38.104Z,4.83
2023-05-13T09:10:06.950Z,3.00
2023-05-13T09:12:53.794Z,3.60
2023-05-13T09:15:23.988Z,5.93
2023-05-13T09:18:07.655Z,3.37
2023-05-13T09:20:36.426Z,4.47
2023-05-13T09:23:13.843Z,3.83
2023-05-13T09:25:40.920Z,3.73
2023-05-13T09:28:08.522Z,7.67
2023-05-13T09:30:43.286Z,5.50
2023-05-13T09:33:20.530Z,3.20
2023-05-13T09:35:53.530Z,4.17
2023-05-13T09:38:27.640Z,2.80
2023-05-13T09:40:58.341Z,2.97
2023-05-13T09:43:32.313Z,2.93
2023-05-13T09:46:04.845Z,2.43
2023-05-13T09:48:35.265Z,3.73
2023-05-13T09:51:02.208Z,4.40
2023-05-13T09:53:29.418Z,4.93
2023-05-13T09:55:59.450Z,4.60
2023-05-13T09:58:29.055Z,5.33
2023-05-13T10:00:57.260Z,3.10
2023-05-13T10:03:24.463Z,3.23
2023-05-13T10:05:52.513Z,7.90
2023-05-13T10:08:23.807Z,3.20
2023-05-13T10:10:54.691Z,3.17
2023-05-13T10:13:24.896Z,3.13
2023-05-13T10:15:54.841Z,2.73
2023-05-13T10:18:34.360Z,4.63
2023-05-13T10:21:24.196Z,3.90
2023-05-13T10:24:08.406Z,3.43
2023-05-13T10:26:35.685Z,5.67
2023-05-13T10:29:04.124Z,3.03
2023-05-13T10:31:31.683Z,3.20
2023-05-13T10:33:59.807Z,4.73
2023-05-13T10:36:54.060Z,2.43
2023-05-13T10:40:17.034Z,2.43
2023-05-13T10:43:13.331Z,2.17
2023-05-13T10:45:40.361Z,2.30
2023-05-13T10:48:19.831Z,6.83
2023-05-13T10:50:57.445Z,4.27
2023-05-13T10:53:49.966Z,2.70
2023-05-13T10:56:24.230Z,3.93
2023-05-13T10:59:03.231Z,5.10
2023-05-13T11:01:33.733Z,2.27
2023-05-13T11:04:04.204Z,2.33
2023-05-13T11:06:37.075Z,5.60
2023-05-13T11:09:11.783Z,3.07
2023-05-13T11:11:39.374Z,2.67
2023-05-13T11:14:21.242Z,3.80
2023-05-13T11:17:01.787Z,2.20
2023-05-13T11:19:50.343Z,1.87
2023-05-13T11:22:24.074Z,5.43
2023-05-13T11:25:09.520Z,1.83
2023-05-13T11:27:41.806Z,6.60
2023-05-13T11:30:30.217Z,10.87
2023-05-13T11:32:59.144Z,1.93
2023-05-13T11:35:28.296Z,2.30
2023-05-13T11:37:59.125Z,2.63
2023-05-13T11:40:29.185Z,2.07
2023-05-13T11:42:56.742Z,2.67
2023-05-13T11:45:25.926Z,4.23
2023-05-13T11:47:54.151Z,5.87
2023-05-13T11:50:32.390Z,4.30
2023-05-13T11:53:01.752Z,4.53
2023-05-13T11:55:36.240Z,5.03
2023-05-13T11:58:04.110Z,2.20
2023-05-13T12:00:33.740Z,6.70
2023-05-13T12:03:08.959Z,2.40
2023-05-13T12:05:36.126Z,3.50
2023-05-13T12:08:03.355Z,5.60
2023-05-13T12:10:30.330Z,3.80
2023-05-13T12:12:57.762Z,2.17
2023-05-13T12:15:25.092Z,3.00
2023-05-13T12:17:53.180Z,2.07
2023-05-13T12:20:22.771Z,2.87
2023-05-13T12:22:52.368Z,3.20
2023-05-13T12:25:40.692Z,2.20
2023-05-13T12:28:24.117Z,2.20
2023-05-13T12:30:51.745Z,3.57
2023-05-13T12:33:34.644Z,3.10
2023-05-13T12:36:22.092Z,2.30
2023-05-13T12:39:03.456Z,2.30
2023-05-13T12:41:34.807Z,2.00
2023-05-13T12:44:07.390Z,1.60
2023-05-13T12:46:35.306Z,2.53
2023-05-13T12:49:04.675Z,1.90
2023-05-13T12:51:33.668Z,2.27
2023-05-13T12:54:00.932Z,2.20
2023-05-13T12:56:27.942Z,8.93
2023-05-13T12:58:54.976Z,2.87
2023-05-13T13:01:23.328Z,2.60
2023-05-13T13:03:50.791Z,2.60
2023-05-13T13:06:18.169Z,4.60
2023-05-13T13:08:45.079Z,2.47
2023-05-13T13:11:18.327Z,5.13
2023-05-13T13:13:46.624Z,1.77
2023-05-13T13:16:14.709Z,2.73
2023-05-13T13:18:43.412Z,2.50
2023-05-13T13:21:11.667Z,1.83
2023-05-13T13:23:39.732Z,2.03
2023-05-13T13:26:06.745Z,2.60
2023-05-13T13:28:33.640Z,2.20
2023-05-13T13:31:00.610Z,2.03
2023-05-13T13:33:27.748Z,2.20
2023-05-13T13:35:55.534Z,1.90
2023-05-13T13:38:26.609Z,2.00
2023-05-13T13:40:59.599Z,2.70
2023-05-13T13:43:28.676Z,1.87
2023-05-13T13:45:55.714Z,5.37
2023-05-13T13:48:22.852Z,1.63
2023-05-13T13:50:52.143Z,3.00
2023-05-13T13:53:19.809Z,2.00
2023-05-13T13:55:46.697Z,2.10
2023-05-13T13:58:14.509Z,2.23
2023-05-13T14:00:41.563Z,1.70
2023-05-13T14:03:08.549Z,7.13
2023-05-13T14:05:35.842Z,1.83
2023-05-13T14:08:02.838Z,1.77
2023-05-13T14:10:30.813Z,3.63
2023-05-13T14:12:57.770Z,2.27
2023-05-13T14:15:28.574Z,1.60
2023-05-13T14:17:55.954Z,1.50
2023-05-13T14:20:24.861Z,3.10
2023-05-13T14:22:51.848Z,2.00
2023-05-13T14:25:18.880Z,2.17
2023-05-13T14:27:46.016Z,2.13
2023-05-13T14:30:13.176Z,5.10
2023-05-13T14:32:45.289Z,6.00
2023-05-13T14:35:13.211Z,1.70
2023-05-13T14:37:43.071Z,2.33
2023-05-13T14:40:10.337Z,1.87
2023-05-13T14:42:37.328Z,2.20
2023-05-13T14:45:04.743Z,2.43
2023-05-13T14:47:31.816Z,2.50
2023-05-13T14:49:58.932Z,1.83
2023-05-13T14:52:26.966Z,3.70
2023-05-13T14:54:54.878Z,1.80
2023-05-13T14:57:22.987Z,2.33
2023-05-13T14:59:50.918Z,1.60
2023-05-13T15:02:24.140Z,5.30
2023-05-13T15:04:54.333Z,2.40
2023-05-13T15:07:21.450Z,2.67
2023-05-13T15:09:50.395Z,5.97
2023-05-13T15:12:20.495Z,1.70
2023-05-13T15:14:57.172Z,3.60
2023-05-13T15:17:24.534Z,2.30
2023-05-13T15:19:51.577Z,2.30
2023-05-13T15:22:18.806Z,3.10
2023-05-13T15:24:49.724Z,2.37
2023-05-13T15:27:19.439Z,2.27
2023-05-13T15:29:46.431Z,2.83
2023-05-13T15:32:14.392Z,2.33
2023-05-13T15:34:49.393Z,3.00
2023-05-13T15:37:16.365Z,3.40
2023-05-13T15:39:44.054Z,2.00
2023-05-13T15:42:12.010Z,9.13
2023-05-13T15:44:45.663Z,2.30
2023-05-13T15:47:16.750Z,1.80
2023-05-13T15:49:43.793Z,3.30
2023-05-13T15:52:11.017Z,1.57
2023-05-13T15:54:41.299Z,1.90
2023-05-13T15:57:09.318Z,2.30
2023-05-13T15:59:40.427Z,2.37
2023-05-13T16:02:09.449Z,2.93
2023-05-13T16:04:37.572Z,2.53
2023-05-13T16:07:07.262Z,1.80
2023-05-13T16:09:34.391Z,2.03
2023-05-13T16:12:01.271Z,2.27
2023-05-13T16:14:29.329Z,1.90
2023-05-13T16:16:56.277Z,2.43
2023-05-13T16:19:26.416Z,2.30
2023-05-13T16:21:55.619Z,2.00
2023-05-13T16:24:23.549Z,1.97
2023-05-13T16:26:52.406Z,1.60
2023-05-13T16:29:20.345Z,4.60
2023-05-13T16:31:47.375Z,2.67
2023-05-13T16:34:14.725Z,1.83
2023-05-13T16:36:41.659Z,2.77
2023-05-13T16:39:08.599Z,2.70
2023-05-13T16:41:35.712Z,1.73
2023-05-13T16:44:02.694Z,4.40
2023-05-13T16:46:30.229Z,1.73
2023-05-13T16:48:58.654Z,2.03
2023-05-13T16:51:26.998Z,1.80
2023-05-13T16:53:54.997Z,1.80
2023-05-13T16:56:26.377Z,3.20
2023-05-13T16:58:53.394Z,2.50
2023-05-13T17:01:21.346Z,1.60
2023-05-13T17:03:49.620Z,1.80
2023-05-13T17:06:16.711Z,1.60
2023-05-13T17:08:43.939Z,2.13
2023-05-13T17:11:16.741Z,3.77
2023-05-13T17:13:44.349Z,2.40
2023-05-13T17:16:11.598Z,1.70
2023-05-13T17:18:38.566Z,3.03
2023-05-13T17:21:05.868Z,1.57
2023-05-13T17:23:33.614Z,1.77
2023-05-13T17:26:00.489Z,3.63
2023-05-13T17:28:28.519Z,2.40
2023-05-13T17:30:55.811Z,2.50
2023-05-13T17:33:22.712Z,2.10
2023-05-13T17:35:49.601Z,1.47
2023-05-13T17:38:16.489Z,3.63
2023-05-13T17:40:43.419Z,1.63
2023-05-13T17:43:11.424Z,1.80
2023-05-13T17:45:38.463Z,1.77
2023-05-13T17:48:06.047Z,1.70
2023-05-13T17:50:33.040Z,2.23
2023-05-13T17:53:00.523Z,1.57
2023-05-13T17:55:28.559Z,1.73
2023-05-13T17:57:55.792Z,2.03
2023-05-13T18:00:25.018Z,2.20
2023-05-13T18:02:52.670Z,2.60
2023-05-13T18:05:23.588Z,2.30
2023-05-13T18:07:51.243Z,1.83
2023-05-13T18:10:18.226Z,1.93
2023-05-13T18:12:45.718Z,3.63
2023-05-13T18:15:13.072Z,1.90
2023-05-13T18:17:39.941Z,5.33
2023-05-13T18:20:07.821Z,4.60
2023-05-13T18:22:35.009Z,4.70
2023-05-13T18:25:01.921Z,5.37
2023-05-13T18:27:28.835Z,3.47
2023-05-13T18:29:55.784Z,8.50
2023-05-13T18:32:22.724Z,4.93
2023-05-13T18:34:49.699Z,7.63
2023-05-13T18:37:16.693Z,3.80
2023-05-13T18:39:45.776Z,3.77
2023-05-13T18:42:12.966Z,2.87
2023-05-13T18:44:39.865Z,1.90
2023-05-13T18:47:07.142Z,3.13
2023-05-13T18:49:34.141Z,3.03
2023-05-13T18:52:03.120Z,2.70
2023-05-13T18:54:32.086Z,2.77
2023-05-13T18:56:59.019Z,3.00
2023-05-13T18:59:26.113Z,2.63
2023-05-13T19:01:53.192Z,5.17
2023-05-13T19:04:20.272Z,3.43
2023-05-13T19:06:47.375Z,2.70
2023-05-13T19:09:16.318Z,3.20
2023-05-13T19:11:44.270Z,2.80
2023-05-13T19:14:11.228Z,2.57
2023-05-13T19:16:40.405Z,6.03
2023-05-13T19:19:07.397Z,3.23
2023-05-13T19:21:34.479Z,3.27
2023-05-13T19:24:03.292Z,4.63
2023-05-13T19:26:30.819Z,3.60
2023-05-13T19:28:57.978Z,5.30
2023-05-13T19:31:26.846Z,3.80
2023-05-13T19:34:01.335Z,2.80
2023-05-13T19:36:28.275Z,3.47
2023-05-13T19:38:56.843Z,3.70
2023-05-13T19:41:23.825Z,4.90
2023-05-13T19:43:50.762Z,4.70
2023-05-13T19:46:17.817Z,3.30
2023-05-13T19:48:44.737Z,3.50
2023-05-13T19:51:11.620Z,6.33
2023-05-13T19:53:42.574Z,6.80
2023-05-13T19:56:09.539Z,5.30
2023-05-13T19:58:36.747Z,5.47
2023-05-13T20:01:03.787Z,4.50
2023-05-13T20:03:31.869Z,4.40
2023-05-13T20:05:59.240Z,5.30
2023-05-13T20:08:26.396Z,4.17
2023-05-13T20:10:53.331Z,4.73
2023-05-13T20:13:20.220Z,6.33
2023-05-13T20:15:47.164Z,5.73
2023-05-13T20:18:14.122Z,4.53
2023-05-13T20:20:41.727Z,6.60
2023-05-13T20:23:09.032Z,5.87
2023-05-13T20:25:35.943Z,5.93
2023-05-13T20:28:06.956Z,5.37
2023-05-13T20:30:33.906Z,7.03
2023-05-13T20:33:01.018Z,8.00
2023-05-13T20:35:29.010Z,6.73
2023-05-13T20:37:57.217Z,8.53
2023-05-13T20:40:26.379Z,7.20
2023-05-13T20:42:53.357Z,7.03
2023-05-13T20:45:20.626Z,7.03
2023-05-13T20:47:47.522Z,6.57
2023-05-13T20:50:14.481Z,9.23
2023-05-13T20:52:44.425Z,7.13
2023-05-13T20:55:11.529Z,7.53
2023-05-13T20:57:44.183Z,7.90
2023-05-13T21:00:24.757Z,7.70
2023-05-13T21:02:53.118Z,6.37
2023-05-13T21:05:20.533Z,14.80
2023-05-13T21:07:47.513Z,6.83
2023-05-13T21:10:14.403Z,7.07
2023-05-13T21:12:41.441Z,6.80
2023-05-13T21:15:12.474Z,7.50
2023-05-13T21:17:41.686Z,7.07
2023-05-13T21:20:10.850Z,8.57
2023-05-13T21:22:37.727Z,7.30
2023-05-13T21:25:09.177Z,7.30
2023-05-13T21:27:50.062Z,9.10
2023-05-13T21:30:16.964Z,8.03
2023-05-13T21:32:43.845Z,7.70
2023-05-13T21:35:10.912Z,5.97
2023-05-13T21:37:37.885Z,7.60
2023-05-13T21:40:05.702Z,6.90
2023-05-13T21:42:32.601Z,10.43
2023-05-13T21:45:01.534Z,6.37
2023-05-13T21:47:30.568Z,5.67
2023-05-13T21:49:57.546Z,7.90
2023-05-13T21:52:24.831Z,6.70
2023-05-13T21:54:52.475Z,5.70
2023-05-13T21:57:19.434Z,7.30
2023-05-13T21:59:46.333Z,6.37
2023-05-13T22:02:17.305Z,6.30
2023-05-13T22:04:44.176Z,6.30
2023-05-13T22:07:11.209Z,6.50
2023-05-13T22:09:38.179Z,6.50
2023-05-13T22:12:05.709Z,6.30
2023-05-13T22:14:32.609Z,6.10
2023-05-13T22:17:09.702Z,7.00
2023-05-13T22:19:37.384Z,6.70
2023-05-13T22:22:04.455Z,5.70
2023-05-13T22:24:31.546Z,7.73
2023-05-13T22:26:58.798Z,5.67
2023-05-13T22:29:25.809Z,6.10
2023-05-13T22:31:57.555Z,6.63
2023-05-13T22:34:25.949Z,5.50
2023-05-13T22:36:52.917Z,5.73
2023-05-13T22:39:20.060Z,6.40
2023-05-13T22:41:47.192Z,6.00
2023-05-13T22:44:14.094Z,5.10
2023-05-13T22:46:45.072Z,5.53
2023-05-13T22:49:12.304Z,6.23
2023-05-13T22:51:39.217Z,5.90
2023-05-13T22:54:06.921Z,7.17
2023-05-13T22:56:40.941Z,6.40
2023-05-13T22:59:07.831Z,6.47
2023-05-13T23:01:34.753Z,9.20
2023-05-13T23:04:04.287Z,7.90
2023-05-13T23:06:31.155Z,6.37
2023-05-13T23:08:58.172Z,7.80
2023-05-13T23:11:25.113Z,7.33
2023-05-13T23:13:59.241Z,6.43
2023-05-13T23:16:26.427Z,7.53
2023-05-13T23:18:55.904Z,7.73
2023-05-13T23:21:22.898Z,7.80
2023-05-13T23:23:50.363Z,7.47
2023-05-13T23:26:17.359Z,8.00
2023-05-13T23:28:45.586Z,7.43
2023-05-13T23:31:13.555Z,7.80
2023-05-13T23:33:40.510Z,7.43
2023-05-13T23:36:07.485Z,8.23
2023-05-13T23:38:34.931Z,10.23
2023-05-13T23:41:01.847Z,8.13
2023-05-13T23:43:28.865Z,7.60
2023-05-13T23:45:55.798Z,8.27
2023-05-13T23:48:22.710Z,11.83
2023-05-13T23:50:50.669Z,7.10
2023-05-13T23:53:17.627Z,7.37
2023-05-13T23:55:44.555Z,7.73
2023-05-13T23:58:11.442Z,8.33
